sensor_id;sensor_type;location;lat;lon;timestamp;P1;durP1;ratioP1;P2;durP2;ratioP2
21806;SDS011;11065;50.786;7.840;2022-08-25T00:01:39;3.60;;;2.07;;
21806;SDS011;11065;50.786;7.840;2022-08-25T00:04:34;2.70;;;1.80;;
21806;SDS011;11065;50.786;7.840;2022-08-25T00:07:24;5.30;;;2.00;;
21806;SDS011;11065;50.786;7.840;2022-08-25T00:09:51;2.70;;;1.63;;
21806;SDS011;11065;50.786;7.840;2022-08-25T00:12:41;2.83;;;1.67;;
21806;SDS011;11065;50.786;7.840;2022-08-25T00:15:08;2.50;;;1.70;;
21806;SDS011;11065;50.786;7.840;2022-08-25T00:18:00;4.07;;;1.70;;
21806;SDS011;11065;50.786;7.840;2022-08-25T00:20:53;2.77;;;1.90;;
21806;SDS011;11065;50.786;7.840;2022-08-25T00:23:44;2.43;;;1.50;;
21806;SDS011;11065;50.786;7.840;2022-08-25T00:26:39;4.33;;;1.67;;
21806;SDS011;11065;50.786;7.840;2022-08-25T00:29:33;3.73;;;1.73;;
21806;SDS011;11065;50.786;7.840;2022-08-25T00:32:28;3.07;;;1.87;;
21806;SDS011;11065;50.786;7.840;2022-08-25T00:35:21;3.30;;;1.73;;
21806;SDS011;11065;50.786;7.840;2022-08-25T00:38:13;3.53;;;1.90;;
21806;SDS011;11065;50.786;7.840;2022-08-25T00:41:07;3.03;;;2.03;;
21806;SDS011;11065;50.786;7.840;2022-08-25T00:44:27;3.83;;;1.83;;
21806;SDS011;11065;50.786;7.840;2022-08-25T00:47:20;4.10;;;1.87;;
21806;SDS011;11065;50.786;7.840;2022-08-25T00:50:13;2.53;;;2.00;;
21806;SDS011;11065;50.786;7.840;2022-08-25T00:53:06;2.43;;;1.93;;
21806;SDS011;11065;50.786;7.840;2022-08-25T00:55:35;4.10;;;1.87;;
21806;SDS011;11065;50.786;7.840;2022-08-25T00:58:28;2.93;;;2.13;;
21806;SDS011;11065;50.786;7.840;2022-08-25T01:01:22;2.93;;;2.20;;
21806;SDS011;11065;50.786;7.840;2022-08-25T01:04:12;3.70;;;2.30;;
21806;SDS011;11065;50.786;7.840;2022-08-25T01:07:04;5.87;;;2.70;;
21806;SDS011;11065;50.786;7.840;2022-08-25T01:09:57;3.80;;;2.57;;
21806;SDS011;11065;50.786;7.840;2022-08-25T01:12:25;3.37;;;2.37;;
21806;SDS011;11065;50.786;7.840;2022-08-25T01:15:18;4.10;;;2.17;;
21806;SDS011;11065;50.786;7.840;2022-08-25T01:18:11;4.07;;;2.27;;
21806;SDS011;11065;50.786;7.840;2022-08-25T01:21:04;4.23;;;2.20;;
21806;SDS011;11065;50.786;7.840;2022-08-25T01:23:56;3.50;;;2.37;;
21806;SDS011;11065;50.786;7.840;2022-08-25T01:26:49;4.43;;;2.10;;
21806;SDS011;11065;50.786;7.840;2022-08-25T01:29:41;3.33;;;2.27;;
21806;SDS011;11065;50.786;7.840;2022-08-25T01:32:33;3.83;;;2.40;;
21806;SDS011;11065;50.786;7.840;2022-08-25T01:35:26;3.40;;;2.10;;
21806;SDS011;11065;50.786;7.840;2022-08-25T01:38:17;4.10;;;2.17;;
21806;SDS011;11065;50.786;7.840;2022-08-25T01:44:57;4.03;;;1.90;;
21806;SDS011;11065;50.786;7.840;2022-08-25T01:47:47;4.13;;;2.20;;
21806;SDS011;11065;50.786;7.840;2022-08-25T01:50:40;2.70;;;1.93;;
21806;SDS011;11065;50.786;7.840;2022-08-25T01:53:31;2.40;;;1.97;;
21806;SDS011;11065;50.786;7.840;2022-08-25T01:56:23;3.90;;;1.97;;
21806;SDS011;11065;50.786;7.840;2022-08-25T01:59:17;3.70;;;1.97;;
21806;SDS011;11065;50.786;7.840;2022-08-25T02:02:14;3.23;;;1.93;;
21806;SDS011;11065;50.786;7.840;2022-08-25T02:05:07;2.83;;;1.83;;
21806;SDS011;11065;50.786;7.840;2022-08-25T02:08:00;2.87;;;2.03;;
21806;SDS011;11065;50.786;7.840;2022-08-25T02:10:52;3.57;;;2.20;;
21806;SDS011;11065;50.786;7.840;2022-08-25T02:13:45;3.63;;;2.13;;
21806;SDS011;11065;50.786;7.840;2022-08-25T02:16:38;5.97;;;2.37;;
21806;SDS011;11065;50.786;7.840;2022-08-25T02:19:07;3.23;;;2.20;;
21806;SDS011;11065;50.786;7.840;2022-08-25T02:22:00;4.70;;;1.80;;
21806;SDS011;11065;50.786;7.840;2022-08-25T02:24:53;2.63;;;1.90;;
21806;SDS011;11065;50.786;7.840;2022-08-25T02:27:45;4.67;;;2.20;;
21806;SDS011;11065;50.786;7.840;2022-08-25T02:30:36;4.40;;;2.43;;
21806;SDS011;11065;50.786;7.840;2022-08-25T02:33:29;4.40;;;2.53;;
21806;SDS011;11065;50.786;7.840;2022-08-25T02:36:21;3.77;;;2.40;;
21806;SDS011;11065;50.786;7.840;2022-08-25T02:38:49;4.97;;;2.47;;
21806;SDS011;11065;50.786;7.840;2022-08-25T02:41:41;2.80;;;2.03;;
21806;SDS011;11065;50.786;7.840;2022-08-25T02:44:34;3.70;;;2.37;;
21806;SDS011;11065;50.786;7.840;2022-08-25T02:47:25;3.63;;;2.53;;
21806;SDS011;11065;50.786;7.840;2022-08-25T02:50:16;3.93;;;2.10;;
21806;SDS011;11065;50.786;7.840;2022-08-25T02:53:08;3.80;;;2.60;;
21806;SDS011;11065;50.786;7.840;2022-08-25T02:55:59;3.53;;;2.80;;
21806;SDS011;11065;50.786;7.840;2022-08-25T02:58:50;4.77;;;2.67;;
21806;SDS011;11065;50.786;7.840;2022-08-25T03:01:42;4.77;;;2.57;;
21806;SDS011;11065;50.786;7.840;2022-08-25T03:04:33;5.77;;;2.80;;
21806;SDS011;11065;50.786;7.840;2022-08-25T03:07:25;3.47;;;2.70;;
21806;SDS011;11065;50.786;7.840;2022-08-25T03:10:17;3.63;;;2.30;;
21806;SDS011;11065;50.786;7.840;2022-08-25T03:13:09;4.03;;;2.60;;
21806;SDS011;11065;50.786;7.840;2022-08-25T03:16:01;5.03;;;2.43;;
21806;SDS011;11065;50.786;7.840;2022-08-25T03:18:54;4.30;;;2.47;;
21806;SDS011;11065;50.786;7.840;2022-08-25T03:21:46;3.10;;;2.10;;
21806;SDS011;11065;50.786;7.840;2022-08-25T03:24:13;5.13;;;3.13;;
21806;SDS011;11065;50.786;7.840;2022-08-25T03:27:04;3.90;;;2.73;;
21806;SDS011;11065;50.786;7.840;2022-08-25T03:29:56;3.13;;;2.60;;
21806;SDS011;11065;50.786;7.840;2022-08-25T03:32:47;3.97;;;2.53;;
21806;SDS011;11065;50.786;7.840;2022-08-25T03:35:38;5.10;;;2.63;;
21806;SDS011;11065;50.786;7.840;2022-08-25T03:38:30;4.30;;;2.97;;
21806;SDS011;11065;50.786;7.840;2022-08-25T03:40:56;4.47;;;2.60;;
21806;SDS011;11065;50.786;7.840;2022-08-25T03:43:49;5.33;;;2.70;;
21806;SDS011;11065;50.786;7.840;2022-08-25T03:46:42;4.67;;;2.73;;
21806;SDS011;11065;50.786;7.840;2022-08-25T03:49:37;4.23;;;2.80;;
21806;SDS011;11065;50.786;7.840;2022-08-25T03:52:28;4.57;;;3.17;;
21806;SDS011;11065;50.786;7.840;2022-08-25T03:54:54;4.03;;;3.03;;
21806;SDS011;11065;50.786;7.840;2022-08-25T03:57:46;5.93;;;3.13;;
21806;SDS011;11065;50.786;7.840;2022-08-25T04:00:38;5.30;;;2.83;;
21806;SDS011;11065;50.786;7.840;2022-08-25T04:03:29;4.93;;;2.63;;
21806;SDS011;11065;50.786;7.840;2022-08-25T04:06:21;4.10;;;2.33;;
21806;SDS011;11065;50.786;7.840;2022-08-25T04:09:12;5.17;;;3.40;;
21806;SDS011;11065;50.786;7.840;2022-08-25T04:12:04;3.83;;;2.80;;
21806;SDS011;11065;50.786;7.840;2022-08-25T04:14:54;4.23;;;3.10;;
21806;SDS011;11065;50.786;7.840;2022-08-25T04:17:21;6.93;;;3.30;;
21806;SDS011;11065;50.786;7.840;2022-08-25T04:20:12;3.80;;;2.93;;
21806;SDS011;11065;50.786;7.840;2022-08-25T04:22:39;7.37;;;3.00;;
21806;SDS011;11065;50.786;7.840;2022-08-25T04:25:31;5.23;;;3.00;;
21806;SDS011;11065;50.786;7.840;2022-08-25T04:27:57;4.80;;;3.10;;
21806;SDS011;11065;50.786;7.840;2022-08-25T04:30:49;4.63;;;3.23;;
21806;SDS011;11065;50.786;7.840;2022-08-25T04:33:43;4.33;;;2.97;;
21806;SDS011;11065;50.786;7.840;2022-08-25T04:36:35;3.87;;;2.83;;
21806;SDS011;11065;50.786;7.840;2022-08-25T04:39:27;5.30;;;2.93;;
21806;SDS011;11065;50.786;7.840;2022-08-25T04:42:19;4.53;;;2.87;;
21806;SDS011;11065;50.786;7.840;2022-08-25T04:45:12;4.57;;;3.20;;
21806;SDS011;11065;50.786;7.840;2022-08-25T04:48:03;5.00;;;2.80;;
21806;SDS011;11065;50.786;7.840;2022-08-25T04:50:55;5.87;;;2.77;;
21806;SDS011;11065;50.786;7.840;2022-08-25T04:53:21;4.33;;;3.23;;
21806;SDS011;11065;50.786;7.840;2022-08-25T04:56:13;5.00;;;2.83;;
21806;SDS011;11065;50.786;7.840;2022-08-25T04:59:11;4.07;;;3.00;;
21806;SDS011;11065;50.786;7.840;2022-08-25T05:02:04;4.17;;;3.27;;
21806;SDS011;11065;50.786;7.840;2022-08-25T05:04:56;4.43;;;2.90;;
21806;SDS011;11065;50.786;7.840;2022-08-25T05:07:48;4.20;;;3.13;;
21806;SDS011;11065;50.786;7.840;2022-08-25T05:10:39;3.60;;;2.80;;
21806;SDS011;11065;50.786;7.840;2022-08-25T05:13:34;4.73;;;3.07;;
21806;SDS011;11065;50.786;7.840;2022-08-25T05:16:25;4.27;;;3.07;;
21806;SDS011;11065;50.786;7.840;2022-08-25T05:18:53;3.53;;;3.03;;
21806;SDS011;11065;50.786;7.840;2022-08-25T05:21:45;5.83;;;3.50;;
21806;SDS011;11065;50.786;7.840;2022-08-25T05:24:37;9.00;;;3.43;;
21806;SDS011;11065;50.786;7.840;2022-08-25T05:27:28;4.57;;;3.40;;
21806;SDS011;11065;50.786;7.840;2022-08-25T05:30:19;4.20;;;3.23;;
21806;SDS011;11065;50.786;7.840;2022-08-25T05:33:12;4.43;;;2.97;;
21806;SDS011;11065;50.786;7.840;2022-08-25T05:36:06;3.90;;;3.27;;
21806;SDS011;11065;50.786;7.840;2022-08-25T05:38:34;4.20;;;3.03;;
21806;SDS011;11065;50.786;7.840;2022-08-25T05:41:27;3.80;;;2.93;;
21806;SDS011;11065;50.786;7.840;2022-08-25T05:44:20;5.70;;;3.50;;
21806;SDS011;11065;50.786;7.840;2022-08-25T05:47:12;7.60;;;3.33;;
21806;SDS011;11065;50.786;7.840;2022-08-25T05:50:04;6.40;;;3.10;;
21806;SDS011;11065;50.786;7.840;2022-08-25T05:52:54;5.60;;;3.43;;
21806;SDS011;11065;50.786;7.840;2022-08-25T05:55:47;4.67;;;3.43;;
21806;SDS011;11065;50.786;7.840;2022-08-25T05:58:40;5.83;;;3.70;;
21806;SDS011;11065;50.786;7.840;2022-08-25T06:01:08;4.93;;;3.80;;
21806;SDS011;11065;50.786;7.840;2022-08-25T06:04:27;7.20;;;3.93;;
21806;SDS011;11065;50.786;7.840;2022-08-25T06:07:18;5.57;;;3.63;;
21806;SDS011;11065;50.786;7.840;2022-08-25T06:10:11;5.43;;;3.97;;
21806;SDS011;11065;50.786;7.840;2022-08-25T06:13:03;5.70;;;3.80;;
21806;SDS011;11065;50.786;7.840;2022-08-25T06:15:31;4.30;;;3.67;;
21806;SDS011;11065;50.786;7.840;2022-08-25T06:18:23;6.13;;;3.67;;
21806;SDS011;11065;50.786;7.840;2022-08-25T06:20:50;5.60;;;4.00;;
21806;SDS011;11065;50.786;7.840;2022-08-25T06:23:41;6.33;;;4.00;;
21806;SDS011;11065;50.786;7.840;2022-08-25T06:26:33;7.23;;;4.33;;
21806;SDS011;11065;50.786;7.840;2022-08-25T06:29:24;6.00;;;4.53;;
21806;SDS011;11065;50.786;7.840;2022-08-25T06:31:51;5.10;;;3.77;;
21806;SDS011;11065;50.786;7.840;2022-08-25T06:34:43;5.63;;;4.37;;
21806;SDS011;11065;50.786;7.840;2022-08-25T06:37:34;5.30;;;3.83;;
21806;SDS011;11065;50.786;7.840;2022-08-25T06:40:26;6.87;;;4.20;;
21806;SDS011;11065;50.786;7.840;2022-08-25T06:43:19;4.67;;;3.70;;
21806;SDS011;11065;50.786;7.840;2022-08-25T06:45:46;4.60;;;3.83;;
21806;SDS011;11065;50.786;7.840;2022-08-25T06:48:38;6.60;;;3.97;;
21806;SDS011;11065;50.786;7.840;2022-08-25T06:51:06;5.70;;;4.37;;
21806;SDS011;11065;50.786;7.840;2022-08-25T06:53:59;6.53;;;4.03;;
21806;SDS011;11065;50.786;7.840;2022-08-25T06:56:51;6.27;;;4.50;;
21806;SDS011;11065;50.786;7.840;2022-08-25T06:59:42;6.63;;;4.17;;
21806;SDS011;11065;50.786;7.840;2022-08-25T07:02:33;7.53;;;3.90;;
21806;SDS011;11065;50.786;7.840;2022-08-25T07:05:26;6.30;;;4.20;;
21806;SDS011;11065;50.786;7.840;2022-08-25T07:08:18;7.73;;;4.40;;
21806;SDS011;11065;50.786;7.840;2022-08-25T07:11:11;5.40;;;4.40;;
21806;SDS011;11065;50.786;7.840;2022-08-25T07:14:03;5.37;;;3.77;;
21806;SDS011;11065;50.786;7.840;2022-08-25T07:16:32;5.93;;;3.93;;
21806;SDS011;11065;50.786;7.840;2022-08-25T07:19:24;7.77;;;4.50;;
21806;SDS011;11065;50.786;7.840;2022-08-25T07:22:15;7.23;;;4.27;;
21806;SDS011;11065;50.786;7.840;2022-08-25T07:25:07;7.97;;;4.60;;
21806;SDS011;11065;50.786;7.840;2022-08-25T07:28:01;5.83;;;4.53;;
21806;SDS011;11065;50.786;7.840;2022-08-25T07:30:54;6.57;;;4.70;;
21806;SDS011;11065;50.786;7.840;2022-08-25T07:33:50;6.43;;;4.17;;
21806;SDS011;11065;50.786;7.840;2022-08-25T07:37:03;4.90;;;4.40;;
21806;SDS011;11065;50.786;7.840;2022-08-25T07:39:54;6.63;;;4.77;;
21806;SDS011;11065;50.786;7.840;2022-08-25T07:42:22;8.70;;;4.97;;
21806;SDS011;11065;50.786;7.840;2022-08-25T07:45:14;6.70;;;4.53;;
21806;SDS011;11065;50.786;7.840;2022-08-25T07:48:11;7.33;;;5.17;;
21806;SDS011;11065;50.786;7.840;2022-08-25T07:51:09;7.03;;;4.90;;
21806;SDS011;11065;50.786;7.840;2022-08-25T07:54:04;6.57;;;4.73;;
21806;SDS011;11065;50.786;7.840;2022-08-25T07:56:55;6.20;;;5.00;;
21806;SDS011;11065;50.786;7.840;2022-08-25T07:59:21;6.60;;;5.47;;
21806;SDS011;11065;50.786;7.840;2022-08-25T08:02:13;6.87;;;4.80;;
21806;SDS011;11065;50.786;7.840;2022-08-25T08:05:10;6.70;;;5.00;;
21806;SDS011;11065;50.786;7.840;2022-08-25T08:08:04;6.97;;;5.60;;
21806;SDS011;11065;50.786;7.840;2022-08-25T08:10:55;7.33;;;5.57;;
21806;SDS011;11065;50.786;7.840;2022-08-25T08:13:56;7.47;;;4.37;;
21806;SDS011;11065;50.786;7.840;2022-08-25T08:16:48;7.73;;;4.80;;
21806;SDS011;11065;50.786;7.840;2022-08-25T08:19:15;5.43;;;4.40;;
21806;SDS011;11065;50.786;7.840;2022-08-25T08:22:07;5.63;;;5.03;;
21806;SDS011;11065;50.786;7.840;2022-08-25T08:25:02;6.50;;;4.90;;
21806;SDS011;11065;50.786;7.840;2022-08-25T08:27:54;8.03;;;4.60;;
21806;SDS011;11065;50.786;7.840;2022-08-25T08:30:22;6.47;;;5.45;;
21806;SDS011;11065;50.786;7.840;2022-08-25T08:33:14;6.07;;;4.43;;
21806;SDS011;11065;50.786;7.840;2022-08-25T08:36:07;5.63;;;4.38;;
21806;SDS011;11065;50.786;7.840;2022-08-25T08:39:03;5.25;;;3.80;;
21806;SDS011;11065;50.786;7.840;2022-08-25T08:51:57;5.15;;;3.53;;
21806;SDS011;11065;50.786;7.840;2022-08-25T08:54:54;4.80;;;3.40;;
21806;SDS011;11065;50.786;7.840;2022-08-25T08:57:50;3.72;;;3.17;;
21806;SDS011;11065;50.786;7.840;2022-08-25T09:00:52;5.07;;;3.35;;
21806;SDS011;11065;50.786;7.840;2022-08-25T09:03:46;4.25;;;3.50;;
21806;SDS011;11065;50.786;7.840;2022-08-25T09:06:46;4.50;;;3.22;;
21806;SDS011;11065;50.786;7.840;2022-08-25T09:09:40;5.38;;;3.58;;
21806;SDS011;11065;50.786;7.840;2022-08-25T09:20:01;4.78;;;3.20;;
21806;SDS011;11065;50.786;7.840;2022-08-25T09:30:07;4.50;;;3.28;;
21806;SDS011;11065;50.786;7.840;2022-08-25T09:32:40;4.57;;;2.80;;
21806;SDS011;11065;50.786;7.840;2022-08-25T09:35:35;4.55;;;3.17;;
21806;SDS011;11065;50.786;7.840;2022-08-25T09:38:29;3.53;;;2.97;;
21806;SDS011;11065;50.786;7.840;2022-08-25T09:44:50;4.65;;;2.65;;
21806;SDS011;11065;50.786;7.840;2022-08-25T09:47:43;4.20;;;3.10;;
21806;SDS011;11065;50.786;7.840;2022-08-25T09:50:35;7.30;;;2.65;;
21806;SDS011;11065;50.786;7.840;2022-08-25T09:53:27;4.88;;;3.00;;
21806;SDS011;11065;50.786;7.840;2022-08-25T09:56:25;4.35;;;2.85;;
21806;SDS011;11065;50.786;7.840;2022-08-25T09:59:29;3.42;;;2.83;;
21806;SDS011;11065;50.786;7.840;2022-08-25T10:02:26;3.60;;;2.67;;
21806;SDS011;11065;50.786;7.840;2022-08-25T10:08:29;3.75;;;2.90;;
21806;SDS011;11065;50.786;7.840;2022-08-25T10:23:10;3.75;;;2.30;;
21806;SDS011;11065;50.786;7.840;2022-08-25T10:26:10;3.15;;;2.60;;
21806;SDS011;11065;50.786;7.840;2022-08-25T10:29:19;2.72;;;2.30;;
21806;SDS011;11065;50.786;7.840;2022-08-25T10:35:58;2.55;;;2.35;;
21806;SDS011;11065;50.786;7.840;2022-08-25T10:39:02;2.83;;;1.77;;
21806;SDS011;11065;50.786;7.840;2022-08-25T10:41:59;2.45;;;1.77;;
21806;SDS011;11065;50.786;7.840;2022-08-25T10:45:22;4.53;;;2.25;;
21806;SDS011;11065;50.786;7.840;2022-08-25T10:54:19;3.67;;;2.28;;
21806;SDS011;11065;50.786;7.840;2022-08-25T11:00:31;5.22;;;2.65;;
21806;SDS011;11065;50.786;7.840;2022-08-25T11:03:30;2.85;;;2.38;;
21806;SDS011;11065;50.786;7.840;2022-08-25T11:09:04;3.55;;;2.55;;
21806;SDS011;11065;50.786;7.840;2022-08-25T11:12:05;3.40;;;2.33;;
21806;SDS011;11065;50.786;7.840;2022-08-25T11:15:09;2.33;;;1.90;;
21806;SDS011;11065;50.786;7.840;2022-08-25T11:18:08;4.97;;;2.38;;
21806;SDS011;11065;50.786;7.840;2022-08-25T11:21:05;3.15;;;2.40;;
21806;SDS011;11065;50.786;7.840;2022-08-25T11:27:16;4.68;;;2.67;;
21806;SDS011;11065;50.786;7.840;2022-08-25T11:30:16;4.75;;;2.67;;
21806;SDS011;11065;50.786;7.840;2022-08-25T11:33:12;3.40;;;2.38;;
21806;SDS011;11065;50.786;7.840;2022-08-25T11:46:08;5.70;;;2.72;;
21806;SDS011;11065;50.786;7.840;2022-08-25T11:56:05;3.00;;;2.53;;
21806;SDS011;11065;50.786;7.840;2022-08-25T11:58:40;4.00;;;2.45;;
21806;SDS011;11065;50.786;7.840;2022-08-25T12:10:07;3.70;;;3.08;;
21806;SDS011;11065;50.786;7.840;2022-08-25T12:13:03;3.58;;;3.28;;
21806;SDS011;11065;50.786;7.840;2022-08-25T12:25:36;3.80;;;3.17;;
21806;SDS011;11065;50.786;7.840;2022-08-25T12:29:24;5.15;;;4.03;;
21806;SDS011;11065;50.786;7.840;2022-08-25T12:32:02;3.50;;;2.70;;
21806;SDS011;11065;50.786;7.840;2022-08-25T12:38:33;5.28;;;3.03;;
21806;SDS011;11065;50.786;7.840;2022-08-25T12:51:18;5.22;;;3.33;;
21806;SDS011;11065;50.786;7.840;2022-08-25T12:54:12;4.35;;;3.25;;
21806;SDS011;11065;50.786;7.840;2022-08-25T12:57:38;3.90;;;3.20;;
21806;SDS011;11065;50.786;7.840;2022-08-25T13:00:36;3.85;;;3.38;;
21806;SDS011;11065;50.786;7.840;2022-08-25T13:04:42;4.65;;;3.70;;
21806;SDS011;11065;50.786;7.840;2022-08-25T13:16:23;4.45;;;3.53;;
21806;SDS011;11065;50.786;7.840;2022-08-25T13:19:20;4.57;;;3.60;;
21806;SDS011;11065;50.786;7.840;2022-08-25T13:22:12;4.57;;;3.58;;
21806;SDS011;11065;50.786;7.840;2022-08-25T13:25:13;4.20;;;3.75;;
21806;SDS011;11065;50.786;7.840;2022-08-25T13:28:05;5.00;;;3.85;;
21806;SDS011;11065;50.786;7.840;2022-08-25T13:31:08;4.85;;;3.70;;
21806;SDS011;11065;50.786;7.840;2022-08-25T13:34:16;4.93;;;3.67;;
21806;SDS011;11065;50.786;7.840;2022-08-25T13:37:09;5.80;;;3.70;;
21806;SDS011;11065;50.786;7.840;2022-08-25T13:40:25;6.20;;;3.83;;
21806;SDS011;11065;50.786;7.840;2022-08-25T13:43:18;5.10;;;3.63;;
21806;SDS011;11065;50.786;7.840;2022-08-25T13:46:19;4.35;;;3.95;;
21806;SDS011;11065;50.786;7.840;2022-08-25T13:49:11;3.58;;;2.95;;
21806;SDS011;11065;50.786;7.840;2022-08-25T13:52:22;4.53;;;3.30;;
21806;SDS011;11065;50.786;7.840;2022-08-25T13:54:58;5.20;;;3.60;;
21806;SDS011;11065;50.786;7.840;2022-08-25T13:57:50;4.03;;;3.25;;
21806;SDS011;11065;50.786;7.840;2022-08-25T14:00:45;4.40;;;3.05;;
21806;SDS011;11065;50.786;7.840;2022-08-25T14:03:39;3.92;;;3.15;;
21806;SDS011;11065;50.786;7.840;2022-08-25T14:06:36;4.50;;;3.92;;
21806;SDS011;11065;50.786;7.840;2022-08-25T14:09:34;5.35;;;3.78;;
21806;SDS011;11065;50.786;7.840;2022-08-25T14:15:35;4.40;;;3.75;;
21806;SDS011;11065;50.786;7.840;2022-08-25T14:18:28;6.22;;;3.60;;
21806;SDS011;11065;50.786;7.840;2022-08-25T14:21:28;5.18;;;3.05;;
21806;SDS011;11065;50.786;7.840;2022-08-25T14:24:20;4.93;;;4.00;;
21806;SDS011;11065;50.786;7.840;2022-08-25T14:27:13;4.90;;;3.70;;
21806;SDS011;11065;50.786;7.840;2022-08-25T14:30:04;3.97;;;3.30;;
21806;SDS011;11065;50.786;7.840;2022-08-25T14:32:56;4.55;;;3.80;;
21806;SDS011;11065;50.786;7.840;2022-08-25T14:35:50;4.00;;;3.47;;
21806;SDS011;11065;50.786;7.840;2022-08-25T14:38:44;4.35;;;3.50;;
21806;SDS011;11065;50.786;7.840;2022-08-25T14:41:37;4.22;;;3.53;;
21806;SDS011;11065;50.786;7.840;2022-08-25T14:44:18;4.45;;;3.53;;
21806;SDS011;11065;50.786;7.840;2022-08-25T14:47:11;4.22;;;3.55;;
21806;SDS011;11065;50.786;7.840;2022-08-25T14:50:02;4.60;;;3.72;;
21806;SDS011;11065;50.786;7.840;2022-08-25T14:52:54;4.90;;;4.20;;
21806;SDS011;11065;50.786;7.840;2022-08-25T14:55:45;5.47;;;3.83;;
21806;SDS011;11065;50.786;7.840;2022-08-25T14:58:13;4.55;;;3.60;;
21806;SDS011;11065;50.786;7.840;2022-08-25T15:01:04;4.40;;;3.65;;
21806;SDS011;11065;50.786;7.840;2022-08-25T15:03:34;4.47;;;3.67;;
21806;SDS011;11065;50.786;7.840;2022-08-25T15:06:28;4.82;;;3.45;;
21806;SDS011;11065;50.786;7.840;2022-08-25T15:09:20;4.82;;;3.85;;
21806;SDS011;11065;50.786;7.840;2022-08-25T15:12:11;5.38;;;3.55;;
21806;SDS011;11065;50.786;7.840;2022-08-25T15:14:51;5.43;;;3.85;;
21806;SDS011;11065;50.786;7.840;2022-08-25T15:17:42;5.15;;;3.63;;
21806;SDS011;11065;50.786;7.840;2022-08-25T15:20:36;4.50;;;3.70;;
21806;SDS011;11065;50.786;7.840;2022-08-25T15:23:27;5.28;;;3.50;;
21806;SDS011;11065;50.786;7.840;2022-08-25T15:26:18;7.32;;;3.72;;
21806;SDS011;11065;50.786;7.840;2022-08-25T15:29:10;4.18;;;3.47;;
21806;SDS011;11065;50.786;7.840;2022-08-25T15:32:02;4.07;;;3.58;;
21806;SDS011;11065;50.786;7.840;2022-08-25T15:34:56;4.63;;;3.65;;
21806;SDS011;11065;50.786;7.840;2022-08-25T15:37:48;4.68;;;3.72;;
21806;SDS011;11065;50.786;7.840;2022-08-25T15:40:39;5.00;;;3.80;;
21806;SDS011;11065;50.786;7.840;2022-08-25T15:43:06;7.68;;;4.18;;
21806;SDS011;11065;50.786;7.840;2022-08-25T15:45:58;6.50;;;3.80;;
21806;SDS011;11065;50.786;7.840;2022-08-25T15:48:50;4.22;;;3.25;;
21806;SDS011;11065;50.786;7.840;2022-08-25T15:51:42;4.15;;;3.75;;
21806;SDS011;11065;50.786;7.840;2022-08-25T15:54:33;5.28;;;3.78;;
21806;SDS011;11065;50.786;7.840;2022-08-25T15:57:01;4.38;;;3.47;;
21806;SDS011;11065;50.786;7.840;2022-08-25T15:59:52;5.38;;;3.35;;
21806;SDS011;11065;50.786;7.840;2022-08-25T16:02:44;3.97;;;3.55;;
21806;SDS011;11065;50.786;7.840;2022-08-25T16:05:36;4.80;;;3.47;;
21806;SDS011;11065;50.786;7.840;2022-08-25T16:08:35;4.55;;;3.30;;
21806;SDS011;11065;50.786;7.840;2022-08-25T16:11:27;4.13;;;3.10;;
21806;SDS011;11065;50.786;7.840;2022-08-25T16:14:20;4.95;;;3.47;;
21806;SDS011;11065;50.786;7.840;2022-08-25T16:17:12;5.97;;;3.90;;
21806;SDS011;11065;50.786;7.840;2022-08-25T16:20:03;5.20;;;4.20;;
21806;SDS011;11065;50.786;7.840;2022-08-25T16:22:31;4.75;;;3.70;;
21806;SDS011;11065;50.786;7.840;2022-08-25T16:25:22;4.60;;;3.78;;
21806;SDS011;11065;50.786;7.840;2022-08-25T16:28:14;4.07;;;3.67;;
21806;SDS011;11065;50.786;7.840;2022-08-25T16:31:10;4.13;;;3.72;;
21806;SDS011;11065;50.786;7.840;2022-08-25T16:34:03;5.07;;;3.70;;
21806;SDS011;11065;50.786;7.840;2022-08-25T16:36:54;4.13;;;3.47;;
21806;SDS011;11065;50.786;7.840;2022-08-25T16:39:50;4.35;;;3.95;;
21806;SDS011;11065;50.786;7.840;2022-08-25T16:42:42;4.95;;;3.90;;
21806;SDS011;11065;50.786;7.840;2022-08-25T16:45:10;4.35;;;3.60;;
21806;SDS011;11065;50.786;7.840;2022-08-25T16:48:02;4.20;;;3.78;;
21806;SDS011;11065;50.786;7.840;2022-08-25T16:50:56;4.82;;;3.55;;
21806;SDS011;11065;50.786;7.840;2022-08-25T16:53:47;4.65;;;3.78;;
21806;SDS011;11065;50.786;7.840;2022-08-25T16:56:58;5.97;;;3.63;;
21806;SDS011;11065;50.786;7.840;2022-08-25T16:59:50;4.32;;;3.30;;
21806;SDS011;11065;50.786;7.840;2022-08-25T17:02:41;4.63;;;3.97;;
21806;SDS011;11065;50.786;7.840;2022-08-25T17:05:38;4.85;;;3.90;;
21806;SDS011;11065;50.786;7.840;2022-08-25T17:08:30;5.72;;;3.60;;
21806;SDS011;11065;50.786;7.840;2022-08-25T17:11:25;4.22;;;3.72;;
21806;SDS011;11065;50.786;7.840;2022-08-25T17:14:19;5.35;;;3.53;;
21806;SDS011;11065;50.786;7.840;2022-08-25T17:17:10;4.47;;;3.60;;
21806;SDS011;11065;50.786;7.840;2022-08-25T17:19:37;5.00;;;3.78;;
21806;SDS011;11065;50.786;7.840;2022-08-25T17:22:28;5.25;;;3.53;;
21806;SDS011;11065;50.786;7.840;2022-08-25T17:25:22;4.07;;;3.38;;
21806;SDS011;11065;50.786;7.840;2022-08-25T17:28:13;4.50;;;3.65;;
21806;SDS011;11065;50.786;7.840;2022-08-25T17:31:06;5.90;;;3.50;;
21806;SDS011;11065;50.786;7.840;2022-08-25T17:33:59;4.80;;;3.75;;
21806;SDS011;11065;50.786;7.840;2022-08-25T17:36:50;4.45;;;3.65;;
21806;SDS011;11065;50.786;7.840;2022-08-25T17:39:43;3.80;;;3.35;;
21806;SDS011;11065;50.786;7.840;2022-08-25T17:42:34;5.22;;;3.78;;
21806;SDS011;11065;50.786;7.840;2022-08-25T17:45:01;4.53;;;4.00;;
21806;SDS011;11065;50.786;7.840;2022-08-25T17:47:52;4.47;;;3.40;;
21806;SDS011;11065;50.786;7.840;2022-08-25T17:50:44;6.35;;;3.47;;
21806;SDS011;11065;50.786;7.840;2022-08-25T17:53:36;4.78;;;3.08;;
21806;SDS011;11065;50.786;7.840;2022-08-25T17:56:05;3.90;;;3.35;;
21806;SDS011;11065;50.786;7.840;2022-08-25T17:58:59;6.18;;;4.35;;
21806;SDS011;11065;50.786;7.840;2022-08-25T18:01:51;6.80;;;4.20;;
21806;SDS011;11065;50.786;7.840;2022-08-25T18:04:46;7.00;;;4.10;;
21806;SDS011;11065;50.786;7.840;2022-08-25T18:07:37;7.78;;;3.85;;
21806;SDS011;11065;50.786;7.840;2022-08-25T18:10:32;5.38;;;4.05;;
21806;SDS011;11065;50.786;7.840;2022-08-25T18:13:23;4.88;;;3.28;;
21806;SDS011;11065;50.786;7.840;2022-08-25T18:16:18;5.38;;;3.67;;
21806;SDS011;11065;50.786;7.840;2022-08-25T18:19:10;7.15;;;3.25;;
21806;SDS011;11065;50.786;7.840;2022-08-25T18:22:02;5.47;;;3.58;;
21806;SDS011;11065;50.786;7.840;2022-08-25T18:24:56;5.43;;;3.80;;
21806;SDS011;11065;50.786;7.840;2022-08-25T18:27:53;4.68;;;3.70;;
21806;SDS011;11065;50.786;7.840;2022-08-25T18:30:46;5.85;;;4.25;;
21806;SDS011;11065;50.786;7.840;2022-08-25T18:33:37;4.60;;;3.72;;
21806;SDS011;11065;50.786;7.840;2022-08-25T18:36:34;4.10;;;3.70;;
21806;SDS011;11065;50.786;7.840;2022-08-25T18:39:29;4.63;;;3.60;;
21806;SDS011;11065;50.786;7.840;2022-08-25T18:42:39;6.25;;;3.83;;
21806;SDS011;11065;50.786;7.840;2022-08-25T18:45:36;4.45;;;3.65;;
21806;SDS011;11065;50.786;7.840;2022-08-25T18:48:29;5.68;;;3.65;;
21806;SDS011;11065;50.786;7.840;2022-08-25T18:51:23;4.80;;;3.65;;
21806;SDS011;11065;50.786;7.840;2022-08-25T18:54:15;3.83;;;3.28;;
21806;SDS011;11065;50.786;7.840;2022-08-25T18:57:14;5.13;;;4.00;;
21806;SDS011;11065;50.786;7.840;2022-08-25T19:00:07;5.70;;;3.63;;
21806;SDS011;11065;50.786;7.840;2022-08-25T19:02:59;5.22;;;3.67;;
21806;SDS011;11065;50.786;7.840;2022-08-25T19:05:53;4.57;;;3.63;;
21806;SDS011;11065;50.786;7.840;2022-08-25T19:08:45;4.00;;;3.45;;
21806;SDS011;11065;50.786;7.840;2022-08-25T19:11:12;5.30;;;3.85;;
21806;SDS011;11065;50.786;7.840;2022-08-25T19:14:04;4.20;;;3.50;;
21806;SDS011;11065;50.786;7.840;2022-08-25T19:17:03;5.40;;;3.92;;
21806;SDS011;11065;50.786;7.840;2022-08-25T19:19:53;4.00;;;3.30;;